createdAt,value
2018-12-21T00:00:58.057Z,13.60
2018-12-21T00:03:25.632Z,13.47
2018-12-21T00:05:53.242Z,11.90
2018-12-21T00:08:20.821Z,13.10
2018-12-21T00:10:48.422Z,13.50
2018-12-21T00:13:16.001Z,13.63
2018-12-21T00:15:43.596Z,13.17
2018-12-21T00:18:11.169Z,13.20
2018-12-21T00:20:38.770Z,12.70
2018-12-21T00:23:06.348Z,13.07
2018-12-21T00:25:33.961Z,13.30
2018-12-21T00:28:01.532Z,13.70
2018-12-21T00:30:28.594Z,13.07
2018-12-21T00:33:01.973Z,13.77
2018-12-21T00:35:34.964Z,13.23
2018-12-21T00:38:08.131Z,12.93
2018-12-21T00:40:41.424Z,12.40
2018-12-21T00:43:15.910Z,12.80
2018-12-21T00:45:45.472Z,12.30
2018-12-21T00:48:13.078Z,11.83
2018-12-21T00:50:40.656Z,12.73
2018-12-21T00:53:08.255Z,12.87
2018-12-21T00:55:35.832Z,12.27
2018-12-21T00:58:03.497Z,12.47
2018-12-21T01:00:31.077Z,12.20
2018-12-21T01:02:58.678Z,13.00
2018-12-21T01:05:26.329Z,12.40
2018-12-21T01:07:53.940Z,11.93
2018-12-21T01:10:21.512Z,12.83
2018-12-21T01:12:49.120Z,12.47
2018-12-21T01:15:16.689Z,12.17
2018-12-21T01:17:44.287Z,12.70
2018-12-21T01:20:11.937Z,12.47
2018-12-21T01:22:39.544Z,12.50
2018-12-21T01:25:07.124Z,12.83
2018-12-21T01:27:34.716Z,12.13
2018-12-21T01:30:02.324Z,12.70
2018-12-21T01:32:29.942Z,12.77
2018-12-21T01:34:57.513Z,12.40
2018-12-21T01:37:25.165Z,12.60
2018-12-21T01:39:52.769Z,12.80
2018-12-21T01:42:20.340Z,11.60
2018-12-21T01:44:47.949Z,12.50
2018-12-21T01:47:15.543Z,11.90
2018-12-21T01:49:43.135Z,12.97
2018-12-21T01:52:10.723Z,11.57
2018-12-21T01:54:38.332Z,12.53
2018-12-21T01:57:05.914Z,10.87
2018-12-21T01:59:55.101Z,11.47
2018-12-21T02:02:22.758Z,11.37
2018-12-21T02:04:50.361Z,12.13
2018-12-21T02:07:17.941Z,11.50
2018-12-21T02:09:45.540Z,10.90
2018-12-21T02:12:13.113Z,11.20
2018-12-21T02:14:40.705Z,10.70
2018-12-21T02:17:08.287Z,11.20
2018-12-21T02:19:35.880Z,10.70
2018-12-21T02:22:05.451Z,11.13
2018-12-21T02:24:33.051Z,10.50
2018-12-21T02:27:00.639Z,10.90
2018-12-21T02:29:28.403Z,10.80
2018-12-21T02:31:56.080Z,10.70
2018-12-21T02:34:23.718Z,10.77
2018-12-21T02:36:51.298Z,11.27
2018-12-21T02:39:18.896Z,10.40
2018-12-21T02:41:46.471Z,9.93
2018-12-21T02:44:14.067Z,11.17
2018-12-21T02:46:41.643Z,10.07
2018-12-21T02:49:09.234Z,10.90
2018-12-21T02:51:36.812Z,11.50
2018-12-21T02:54:04.486Z,11.40
2018-12-21T02:56:32.065Z,10.83
2018-12-21T02:58:59.665Z,10.90
2018-12-21T03:01:27.243Z,10.53
2018-12-21T03:03:54.838Z,10.60
2018-12-21T03:06:22.407Z,9.97
2018-12-21T03:08:50.042Z,10.93
2018-12-21T03:11:17.615Z,10.53
2018-12-21T03:13:45.208Z,11.40
2018-12-21T03:16:12.774Z,11.00
2018-12-21T03:18:40.377Z,10.80
2018-12-21T03:21:07.965Z,10.70
2018-12-21T03:23:35.582Z,11.47
2018-12-21T03:26:03.171Z,10.70
2018-12-21T03:28:30.792Z,10.57
2018-12-21T03:30:58.367Z,10.70
2018-12-21T03:33:25.962Z,10.10
2018-12-21T03:35:53.563Z,10.20
2018-12-21T03:38:21.165Z,10.97
2018-12-21T03:40:48.761Z,10.87
2018-12-21T03:43:16.340Z,10.37
2018-12-21T03:45:43.938Z,10.93
2018-12-21T03:48:11.519Z,10.97
2018-12-21T03:50:39.116Z,10.70
2018-12-21T03:53:06.686Z,10.13
2018-12-21T03:55:34.293Z,10.77
2018-12-21T03:58:01.883Z,11.33
2018-12-21T04:00:29.489Z,10.20
2018-12-21T04:02:57.072Z,10.30
2018-12-21T04:05:24.673Z,10.67
2018-12-21T04:07:52.246Z,10.33
2018-12-21T04:10:19.847Z,10.73
2018-12-21T04:12:47.502Z,10.17
2018-12-21T04:15:15.333Z,9.57
2018-12-21T04:17:42.945Z,9.80
2018-12-21T04:20:10.610Z,10.20
2018-12-21T04:22:38.185Z,10.10
2018-12-21T04:25:05.787Z,10.27
2018-12-21T04:27:33.352Z,8.80
2018-12-21T04:30:00.941Z,8.93
2018-12-21T04:32:28.522Z,10.50
2018-12-21T04:34:56.116Z,9.97
2018-12-21T04:37:23.681Z,9.93
2018-12-21T04:39:51.267Z,9.30
2018-12-21T04:42:18.890Z,9.00
2018-12-21T04:44:46.460Z,9.10
2018-12-21T04:47:14.054Z,9.40
2018-12-21T04:49:41.625Z,8.90
2018-12-21T04:52:09.228Z,8.90
2018-12-21T04:54:36.801Z,8.77
2018-12-21T04:57:04.406Z,7.90
2018-12-21T04:59:31.992Z,8.30
2018-12-21T05:01:59.585Z,8.40
2018-12-21T05:04:27.161Z,8.43
2018-12-21T05:06:54.754Z,7.93
2018-12-21T05:09:22.337Z,8.17
2018-12-21T05:11:49.944Z,8.00
2018-12-21T05:14:17.521Z,7.93
2018-12-21T05:16:45.117Z,8.20
2018-12-21T05:19:12.690Z,7.37
2018-12-21T05:21:40.288Z,8.20
2018-12-21T05:24:07.868Z,7.70
2018-12-21T05:26:35.435Z,7.53
2018-12-21T05:29:03.030Z,7.93
2018-12-21T05:31:30.608Z,7.70
2018-12-21T05:33:58.288Z,8.17
2018-12-21T05:36:25.872Z,8.30
2018-12-21T05:38:53.473Z,7.50
2018-12-21T05:41:21.046Z,7.93
2018-12-21T05:43:48.651Z,18.20
2018-12-21T05:46:16.224Z,16.00
2018-12-21T05:48:43.817Z,7.27
2018-12-21T05:51:11.392Z,7.37
2018-12-21T05:53:38.994Z,40.03
2018-12-21T05:56:06.566Z,7.60
2018-12-21T05:58:34.170Z,27.37
2018-12-21T06:01:01.821Z,7.00
2018-12-21T06:03:29.429Z,11.03
2018-12-21T06:05:57.002Z,6.80
2018-12-21T06:08:24.604Z,6.97
2018-12-21T06:10:52.246Z,7.37
2018-12-21T06:13:19.849Z,6.43
2018-12-21T06:15:47.425Z,6.50
2018-12-21T06:18:15.012Z,6.83
2018-12-21T06:20:42.612Z,6.17
2018-12-21T06:23:10.181Z,5.93
2018-12-21T06:25:37.783Z,6.17
2018-12-21T06:28:05.360Z,5.70
2018-12-21T06:30:33.002Z,5.67
2018-12-21T06:33:00.669Z,5.63
2018-12-21T06:35:28.265Z,6.10
2018-12-21T06:37:55.836Z,5.50
2018-12-21T06:40:23.431Z,5.03
2018-12-21T06:42:51.007Z,5.20
2018-12-21T06:45:18.608Z,5.23
2018-12-21T06:47:46.178Z,4.50
2018-12-21T06:50:13.777Z,4.27
2018-12-21T06:52:41.349Z,4.30
2018-12-21T06:55:08.945Z,4.00
2018-12-21T06:57:36.522Z,4.00
2018-12-21T07:00:07.153Z,4.07
2018-12-21T07:02:34.726Z,3.60
2018-12-21T07:05:02.326Z,3.90
2018-12-21T07:07:29.947Z,3.53
2018-12-21T07:09:57.537Z,3.30
2018-12-21T07:12:25.116Z,4.20
2018-12-21T07:14:52.703Z,3.53
2018-12-21T07:17:20.270Z,3.87
2018-12-21T07:19:47.866Z,3.57
2018-12-21T07:22:15.454Z,3.60
2018-12-21T07:24:43.027Z,3.83
2018-12-21T07:27:10.625Z,3.60
2018-12-21T07:29:38.202Z,3.10
2018-12-21T07:32:05.797Z,3.80
2018-12-21T07:34:33.367Z,3.73
2018-12-21T07:37:00.952Z,3.67
2018-12-21T07:39:28.531Z,4.20
2018-12-21T07:41:56.135Z,3.27
2018-12-21T07:44:23.710Z,3.17
2018-12-21T07:46:51.307Z,4.00
2018-12-21T07:49:18.880Z,3.97
2018-12-21T07:51:46.475Z,3.90
2018-12-21T07:54:14.052Z,4.83
2018-12-21T07:56:41.645Z,4.07
2018-12-21T07:59:09.216Z,3.93
2018-12-21T08:01:36.811Z,3.83
2018-12-21T08:04:04.388Z,3.70
2018-12-21T08:06:31.977Z,4.73
2018-12-21T08:08:59.544Z,4.77
2018-12-21T08:11:27.129Z,4.10
2018-12-21T08:13:54.701Z,4.33
2018-12-21T08:16:22.298Z,4.10
2018-12-21T08:18:49.869Z,4.27
2018-12-21T08:21:17.440Z,3.87
2018-12-21T08:23:45.056Z,3.63
2018-12-21T08:26:12.623Z,3.90
2018-12-21T08:28:40.222Z,4.10
2018-12-21T08:31:07.797Z,4.53
2018-12-21T08:33:35.406Z,14.47
2018-12-21T08:36:02.986Z,4.73
2018-12-21T08:38:30.588Z,5.63
2018-12-21T08:40:58.230Z,4.50
2018-12-21T08:43:25.829Z,4.73
2018-12-21T08:45:53.485Z,4.57
2018-12-21T08:48:21.234Z,6.27
2018-12-21T08:50:48.798Z,4.27
2018-12-21T08:53:16.401Z,3.90
2018-12-21T08:55:44.043Z,4.23
2018-12-21T08:58:11.642Z,4.60
2018-12-21T09:00:39.276Z,4.40
2018-12-21T09:03:06.869Z,4.00
2018-12-21T09:05:34.446Z,3.97
2018-12-21T09:08:02.045Z,3.60
2018-12-21T09:10:29.616Z,3.37
2018-12-21T09:12:57.211Z,3.83
2018-12-21T09:15:24.788Z,3.50
2018-12-21T09:17:52.380Z,3.57
2018-12-21T09:20:19.948Z,3.50
2018-12-21T09:22:47.545Z,3.10
2018-12-21T09:25:15.109Z,2.93
2018-12-21T09:27:42.681Z,3.40
2018-12-21T09:30:11.534Z,2.67
2018-12-21T09:32:39.113Z,2.83
2018-12-21T09:35:06.707Z,3.13
2018-12-21T09:37:34.274Z,3.07
2018-12-21T09:40:01.878Z,3.40
2018-12-21T09:42:29.478Z,3.50
2018-12-21T09:44:57.068Z,2.93
2018-12-21T09:47:24.638Z,2.77
2018-12-21T09:49:52.240Z,3.30
2018-12-21T09:52:19.821Z,2.80
2018-12-21T09:54:47.420Z,3.03
2018-12-21T09:57:14.993Z,3.03
2018-12-21T09:59:42.596Z,2.40
2018-12-21T10:02:10.169Z,2.77
2018-12-21T10:04:37.762Z,3.00
2018-12-21T10:07:05.348Z,2.90
2018-12-21T10:09:32.937Z,4.03
2018-12-21T10:12:00.512Z,3.13
2018-12-21T10:14:28.100Z,3.23
2018-12-21T10:16:55.682Z,2.60
2018-12-21T10:19:23.270Z,3.53
2018-12-21T10:21:50.918Z,2.70
2018-12-21T10:24:18.875Z,2.70
2018-12-21T10:26:46.671Z,2.57
2018-12-21T10:29:14.309Z,2.87
2018-12-21T10:31:41.907Z,2.23
2018-12-21T10:34:09.496Z,2.90
2018-12-21T10:36:37.088Z,3.63
2018-12-21T10:39:06.316Z,2.20
2018-12-21T10:41:33.898Z,3.20
2018-12-21T10:44:01.460Z,3.77
2018-12-21T10:46:29.066Z,2.83
2018-12-21T10:48:56.633Z,3.00
2018-12-21T10:51:24.227Z,3.07
2018-12-21T10:53:51.788Z,3.13
2018-12-21T10:56:19.395Z,3.33
2018-12-21T10:58:47.098Z,3.90
2018-12-21T11:01:14.684Z,3.43
2018-12-21T11:03:42.258Z,3.03
2018-12-21T11:06:09.852Z,3.30
2018-12-21T11:08:37.419Z,3.20
2018-12-21T11:11:05.005Z,3.33
2018-12-21T11:13:32.574Z,3.17
2018-12-21T11:16:00.177Z,5.40
2018-12-21T11:18:27.745Z,3.37
2018-12-21T11:20:55.319Z,5.90
2018-12-21T11:23:22.912Z,6.30
2018-12-21T11:25:50.651Z,3.60
2018-12-21T11:28:25.391Z,4.30
2018-12-21T11:30:47.936Z,3.87
2018-12-21T11:33:15.525Z,3.50
2018-12-21T11:35:43.100Z,4.50
2018-12-21T11:38:10.702Z,3.63
2018-12-21T11:40:38.275Z,4.00
2018-12-21T11:43:05.865Z,3.27
2018-12-21T11:45:33.436Z,3.23
2018-12-21T11:48:01.036Z,3.30
2018-12-21T11:50:28.594Z,3.27
2018-12-21T11:52:56.187Z,3.40
2018-12-21T11:55:23.753Z,3.47
2018-12-21T11:57:51.352Z,3.77
2018-12-21T12:00:18.985Z,3.20
2018-12-21T12:02:46.570Z,3.50
2018-12-21T12:05:14.142Z,3.80
2018-12-21T12:07:41.869Z,3.30
2018-12-21T12:10:09.518Z,3.67
2018-12-21T12:12:39.231Z,3.90
2018-12-21T12:15:07.381Z,3.27
2018-12-21T12:17:35.040Z,3.60
2018-12-21T12:20:02.691Z,3.43
2018-12-21T12:22:30.261Z,3.37
2018-12-21T12:24:57.848Z,3.50
2018-12-21T12:27:25.417Z,3.17
2018-12-21T12:29:53.008Z,3.63
2018-12-21T12:32:20.578Z,3.60
2018-12-21T12:34:48.179Z,3.77
2018-12-21T12:37:15.758Z,3.07
2018-12-21T12:39:43.363Z,3.23
2018-12-21T12:42:10.941Z,3.60
2018-12-21T12:44:38.526Z,3.20
2018-12-21T12:47:06.154Z,3.30
2018-12-21T12:49:33.860Z,2.83
2018-12-21T12:52:01.571Z,2.90
2018-12-21T12:54:29.177Z,3.83
2018-12-21T12:56:56.759Z,3.40
2018-12-21T12:59:24.368Z,3.20
2018-12-21T13:01:51.943Z,3.13
2018-12-21T13:04:19.547Z,3.70
2018-12-21T13:06:50.268Z,3.50
2018-12-21T13:09:17.867Z,2.50
2018-12-21T13:11:45.453Z,3.50
2018-12-21T13:14:19.713Z,3.23
2018-12-21T13:16:53.299Z,2.80
2018-12-21T13:19:24.332Z,3.10
2018-12-21T13:21:57.899Z,3.00
2018-12-21T13:24:29.229Z,3.10
2018-12-21T13:26:59.875Z,3.30
2018-12-21T13:29:31.125Z,2.80
2018-12-21T13:32:04.708Z,23.37
2018-12-21T13:34:38.587Z,4.53
2018-12-21T13:37:06.175Z,2.87
2018-12-21T13:39:33.791Z,10.70
2018-12-21T13:42:01.384Z,55.80
2018-12-21T13:44:28.993Z,3.97
2018-12-21T13:46:56.568Z,2.83
2018-12-21T13:49:24.175Z,8.90
2018-12-21T13:51:51.877Z,8.47
2018-12-21T13:54:19.491Z,3.80
2018-12-21T13:56:47.070Z,2.47
2018-12-21T13:59:14.689Z,3.03
2018-12-21T14:01:42.286Z,2.80
2018-12-21T14:04:09.871Z,3.50
2018-12-21T14:06:37.468Z,3.20
2018-12-21T14:09:06.421Z,2.87
2018-12-21T14:11:34.117Z,3.40
2018-12-21T14:14:01.705Z,2.50
2018-12-21T14:16:29.310Z,3.17
2018-12-21T14:18:56.888Z,2.90
2018-12-21T14:21:24.495Z,2.70
2018-12-21T14:23:52.154Z,2.53
2018-12-21T14:26:19.759Z,3.20
2018-12-21T14:28:47.358Z,2.53
2018-12-21T14:31:14.963Z,2.80
2018-12-21T14:33:42.559Z,2.40
2018-12-21T14:36:10.163Z,2.30
2018-12-21T14:38:37.758Z,2.77
2018-12-21T14:41:05.366Z,2.80
2018-12-21T14:43:32.952Z,3.00
2018-12-21T14:46:00.661Z,2.57
2018-12-21T14:48:28.276Z,3.10
2018-12-21T14:50:55.879Z,2.93
2018-12-21T14:53:23.461Z,3.30
2018-12-21T14:55:51.058Z,3.20
2018-12-21T14:58:18.649Z,2.53
2018-12-21T15:00:46.236Z,2.63
2018-12-21T15:03:13.850Z,3.10
2018-12-21T15:05:41.439Z,3.77
2018-12-21T15:08:09.135Z,3.20
2018-12-21T15:10:36.722Z,3.17
2018-12-21T15:13:04.404Z,3.30
2018-12-21T15:15:31.992Z,3.00
2018-12-21T15:17:59.608Z,2.93
2018-12-21T15:20:27.187Z,2.80
2018-12-21T15:22:54.802Z,3.43
2018-12-21T15:25:22.400Z,3.40
2018-12-21T15:27:56.490Z,2.27
2018-12-21T15:30:24.129Z,2.60
2018-12-21T15:32:57.467Z,2.40
2018-12-21T15:35:31.467Z,2.17
2018-12-21T15:38:02.399Z,3.00
2018-12-21T15:40:35.901Z,3.80
2018-12-21T15:43:07.135Z,3.40
2018-12-21T15:45:40.870Z,3.50
2018-12-21T15:48:14.612Z,3.67
2018-12-21T15:50:45.849Z,2.63
2018-12-21T15:53:16.596Z,3.60
2018-12-21T15:55:54.759Z,3.10
2018-12-21T15:58:23.731Z,3.10
2018-12-21T16:00:57.398Z,2.83
2018-12-21T16:03:28.328Z,2.77
2018-12-21T16:06:02.008Z,5.13
2018-12-21T16:08:29.618Z,3.40
2018-12-21T16:11:03.616Z,2.50
2018-12-21T16:13:37.366Z,2.90
2018-12-21T16:16:11.032Z,3.07
2018-12-21T16:18:38.632Z,4.80
2018-12-21T16:21:12.004Z,7.97
2018-12-21T16:23:39.607Z,4.07
2018-12-21T16:26:07.207Z,10.83
2018-12-21T16:28:34.815Z,2.57
2018-12-21T16:31:02.393Z,2.00
2018-12-21T16:33:29.971Z,2.80
2018-12-21T16:35:57.571Z,2.40
2018-12-21T16:38:31.120Z,2.27
2018-12-21T16:43:54.721Z,2.13
2018-12-21T16:46:22.304Z,2.40
2018-12-21T16:48:49.911Z,2.60
2018-12-21T16:51:17.490Z,3.40
2018-12-21T16:53:45.088Z,3.03
2018-12-21T16:56:12.812Z,2.27
2018-12-21T16:58:40.492Z,1.23
2018-12-21T17:01:08.100Z,1.97
2018-12-21T17:03:35.681Z,2.83
2018-12-21T17:06:03.297Z,3.20
2018-12-21T17:08:30.886Z,2.43
2018-12-21T17:10:58.485Z,2.60
2018-12-21T17:13:26.062Z,2.80
2018-12-21T17:15:53.668Z,2.77
2018-12-21T17:18:21.336Z,2.60
2018-12-21T17:20:48.939Z,3.60
2018-12-21T17:23:16.517Z,3.90
2018-12-21T17:25:44.115Z,3.57
2018-12-21T17:28:11.696Z,3.00
2018-12-21T17:30:39.295Z,2.80
2018-12-21T17:33:06.872Z,2.40
2018-12-21T17:35:34.471Z,2.00
2018-12-21T17:38:02.053Z,1.77
2018-12-21T17:40:29.660Z,1.67
2018-12-21T17:42:57.242Z,1.50
2018-12-21T17:45:24.841Z,1.43
2018-12-21T17:47:52.418Z,1.53
2018-12-21T17:50:20.025Z,1.23
2018-12-21T17:52:47.603Z,1.70
2018-12-21T17:55:15.214Z,1.60
2018-12-21T17:57:42.798Z,2.03
2018-12-21T18:00:13.438Z,1.87
2018-12-21T18:02:41.901Z,1.87
2018-12-21T18:05:09.482Z,2.03
2018-12-21T18:07:37.083Z,2.33
2018-12-21T18:10:08.520Z,2.93
2018-12-21T18:12:36.128Z,2.73
2018-12-21T18:15:04.975Z,3.23
2018-12-21T18:17:32.582Z,3.30
2018-12-21T18:20:00.190Z,3.77
2018-12-21T18:22:27.848Z,3.53
2018-12-21T18:24:57.398Z,4.10
2018-12-21T18:27:25.253Z,4.67
2018-12-21T18:29:52.834Z,4.00
2018-12-21T18:32:20.595Z,4.37
2018-12-21T18:34:48.175Z,4.53
2018-12-21T18:37:15.777Z,4.83
2018-12-21T18:39:43.363Z,4.57
2018-12-21T18:42:10.973Z,5.60
2018-12-21T18:44:38.556Z,5.47
2018-12-21T18:47:06.162Z,5.50
2018-12-21T18:49:33.744Z,6.03
2018-12-21T18:52:01.356Z,5.80
2018-12-21T18:54:28.948Z,6.27
2018-12-21T18:56:56.556Z,7.30
2018-12-21T18:59:24.140Z,6.90
2018-12-21T19:01:51.723Z,7.90
2018-12-21T19:04:19.323Z,6.07
2018-12-21T19:06:46.904Z,7.07
2018-12-21T19:09:14.517Z,6.70
2018-12-21T19:11:42.103Z,7.93
2018-12-21T19:14:09.733Z,8.00
2018-12-21T19:16:37.319Z,7.57
2018-12-21T19:19:05.689Z,7.23
2018-12-21T19:21:33.448Z,7.10
2018-12-21T19:24:01.067Z,7.17
2018-12-21T19:26:28.656Z,5.60
2018-12-21T19:28:56.266Z,5.50
2018-12-21T19:31:23.882Z,4.60
2018-12-21T19:33:51.513Z,4.13
2018-12-21T19:39:15.552Z,2.63
2018-12-21T19:41:49.642Z,2.40
2018-12-21T19:44:20.688Z,1.93
2018-12-21T19:46:51.318Z,2.40
2018-12-21T19:49:18.922Z,2.63
2018-12-21T19:51:46.508Z,2.50
2018-12-21T19:54:20.381Z,2.10
2018-12-21T19:57:04.163Z,2.30
2018-12-21T19:59:31.864Z,2.50
2018-12-21T20:02:05.807Z,2.10
2018-12-21T20:04:39.305Z,2.07
2018-12-21T20:07:06.889Z,1.87
2018-12-21T20:09:40.816Z,2.23
2018-12-21T20:12:16.467Z,2.50
2018-12-21T20:14:50.716Z,1.47
2018-12-21T20:17:18.302Z,1.20
2018-12-21T20:19:47.559Z,1.67
2018-12-21T20:22:20.842Z,1.60
2018-12-21T20:24:51.671Z,1.60
2018-12-21T20:27:22.270Z,1.10
2018-12-21T20:29:53.315Z,1.50
2018-12-21T20:32:22.240Z,1.30
2018-12-21T20:35:00.563Z,1.63
2018-12-21T20:37:31.628Z,1.37
2018-12-21T20:40:06.996Z,1.50
2018-12-21T20:42:34.590Z,1.50
2018-12-21T20:45:08.698Z,1.47
2018-12-21T20:47:39.944Z,1.60
2018-12-21T20:50:13.224Z,1.80
2018-12-21T20:52:43.769Z,1.30
2018-12-21T20:55:14.805Z,2.20
2018-12-21T20:57:46.998Z,1.80
2018-12-21T21:00:17.924Z,1.77
2018-12-21T21:02:51.854Z,2.17
2018-12-21T21:05:23.045Z,2.13
2018-12-21T21:07:54.214Z,2.37
2018-12-21T21:10:28.183Z,1.63
2018-12-21T21:12:59.206Z,2.20
2018-12-21T21:15:30.419Z,2.10
2018-12-21T21:18:04.208Z,1.80
2018-12-21T21:20:35.583Z,2.07
2018-12-21T21:23:06.243Z,2.17
2018-12-21T21:25:38.168Z,2.50
2018-12-21T21:28:09.543Z,2.30
2018-12-21T21:30:40.795Z,2.13
2018-12-21T21:33:12.397Z,2.53
2018-12-21T21:35:45.811Z,2.13
2018-12-21T21:38:16.876Z,1.90
2018-12-21T21:40:51.507Z,2.27
2018-12-21T21:43:22.434Z,2.60
2018-12-21T21:45:53.367Z,2.50
2018-12-21T21:48:27.022Z,2.20
2018-12-21T21:50:58.572Z,2.07
2018-12-21T21:53:32.135Z,2.10
2018-12-21T21:56:03.475Z,2.07
2018-12-21T21:58:34.514Z,2.60
2018-12-21T22:01:03.754Z,1.80
2018-12-21T22:03:37.227Z,1.80
2018-12-21T22:06:11.346Z,1.83
2018-12-21T22:08:42.313Z,2.40
2018-12-21T22:11:15.887Z,1.80
2018-12-21T22:13:49.778Z,1.83
2018-12-21T22:16:23.749Z,1.33
2018-12-21T22:18:52.940Z,1.80
2018-12-21T22:21:23.760Z,1.40
2018-12-21T22:23:57.560Z,1.20
2018-12-21T22:26:31.048Z,1.00
2018-12-21T22:28:58.671Z,1.30
2018-12-21T22:31:27.708Z,1.13
2018-12-21T22:34:01.783Z,1.40
2018-12-21T22:36:39.172Z,1.53
2018-12-21T22:39:13.167Z,1.10
2018-12-21T22:41:43.790Z,1.40
2018-12-21T22:44:11.479Z,1.03
2018-12-21T22:46:39.154Z,1.00
2018-12-21T22:49:06.755Z,1.30
2018-12-21T22:51:34.339Z,1.10
2018-12-21T22:54:01.938Z,1.50
2018-12-21T22:56:29.515Z,1.70
2018-12-21T22:58:57.114Z,1.47
2018-12-21T23:01:28.312Z,1.40
2018-12-21T23:03:55.920Z,1.40
2018-12-21T23:06:23.499Z,1.60
2018-12-21T23:08:51.100Z,1.20
2018-12-21T23:11:18.685Z,1.30
2018-12-21T23:13:46.298Z,1.30
2018-12-21T23:16:13.886Z,1.37
2018-12-21T23:18:41.499Z,1.40
2018-12-21T23:21:09.079Z,1.40
2018-12-21T23:23:36.683Z,1.20
2018-12-21T23:26:04.259Z,1.17
2018-12-21T23:28:31.947Z,1.00
2018-12-21T23:30:59.535Z,1.00
2018-12-21T23:33:27.139Z,1.40
2018-12-21T23:35:54.724Z,1.00
2018-12-21T23:38:22.323Z,1.37
2018-12-21T23:40:49.902Z,1.17
2018-12-21T23:43:17.503Z,1.30
2018-12-21T23:45:45.109Z,1.20
2018-12-21T23:48:12.695Z,1.50
2018-12-21T23:50:40.294Z,1.30
2018-12-21T23:53:07.875Z,1.30
2018-12-21T23:55:35.477Z,1.10
2018-12-21T23:58:03.062Z,1.20
